Saturday, October 20, 2018, 6:31 AM CDT
Back to Local

KLOT, Chicago/romeoville, Lewis University Airport

Location: Lockport, IL, United States Lat: 41.608
Local Time: 6:31 AM CDT (11:31 GMT) Lon: -88.094
Time Zone: US/Central Elev: 672 ft

Show me the last for .
Show Decoded

2018-10-20 06:15 METAR KLOT 201115Z AUTO 27007KT 10SM CLR 06/03 A2989 RMK AO2 T00550025 =
2018-10-20 05:55 METAR KLOT 201055Z AUTO 28006KT 10SM CLR 05/03 A2988 RMK AO2 T00540026 =
2018-10-20 05:35 METAR KLOT 201035Z AUTO 28007KT 10SM CLR 06/03 A2988 RMK AO2 T00560027 =
2018-10-20 05:15 METAR KLOT 201015Z AUTO 29007KT 10SM CLR 06/03 A2989 RMK AO2 T00620030 =
2018-10-20 04:55 METAR KLOT 200955Z AUTO 29008KT 10SM CLR 07/03 A2989 RMK AO2 T00650032 =
2018-10-20 04:35 METAR KLOT 200935Z AUTO 29009KT 10SM CLR 07/04 A2988 RMK AO2 T00690035 =
2018-10-20 04:15 METAR KLOT 200915Z AUTO 29009KT 10SM CLR 07/04 A2988 RMK AO2 T00710036 =
2018-10-20 03:55 METAR KLOT 200855Z AUTO 30009KT 10SM CLR 08/04 A2988 RMK AO2 T00750037 =
2018-10-20 03:35 METAR KLOT 200835Z AUTO 29011KT 10SM CLR 08/04 A2988 RMK AO2 T00800040 =
2018-10-20 03:15 METAR KLOT 200815Z AUTO 29010KT 10SM CLR 08/04 A2988 RMK AO2 T00820041 =
2018-10-20 02:55 METAR KLOT 200755Z AUTO 30008KT 10SM CLR 09/05 A2988 RMK AO2 T00850045 =
2018-10-20 02:35 METAR KLOT 200735Z AUTO 30009KT 10SM CLR 09/05 A2988 RMK AO2 T00850049 =
2018-10-20 02:15 METAR KLOT 200715Z AUTO 30008KT 10SM CLR 08/06 A2988 RMK AO2 T00800055 =
2018-10-20 01:55 METAR KLOT 200655Z AUTO 29007KT 10SM CLR 08/06 A2988 RMK AO2 T00780060 =
2018-10-20 01:35 METAR KLOT 200635Z AUTO 28007KT 10SM CLR 08/07 A2988 RMK AO2 T00800067 =
2018-10-20 01:15 METAR KLOT 200615Z AUTO 27006KT 10SM CLR 08/07 A2988 RMK AO2 T00810072 =
2018-10-20 00:55 METAR KLOT 200555Z AUTO 28006KT 10SM CLR 08/08 A2988 RMK AO2 T00830075 10115
                 20083 401170031 =
2018-10-20 00:35 METAR KLOT 200535Z AUTO 27006KT 10SM CLR 09/08 A2987 RMK AO2 T00880079 =
2018-10-20 00:15 METAR KLOT 200515Z AUTO 28006KT 10SM CLR 09/08 A2987 RMK AO2 T00930084 =
2018-10-19 23:55 METAR KLOT 200455Z AUTO 28007KT 10SM CLR 10/09 A2987 RMK AO2 T00980086 =
2018-10-19 23:35 METAR KLOT 200435Z AUTO 27008KT 10SM CLR 10/09 A2987 RMK AO2 T01030090 =
2018-10-19 23:15 METAR KLOT 200415Z AUTO 28010KT 10SM CLR 11/09 A2987 RMK AO2 T01060091 =
2018-10-19 22:55 METAR KLOT 200355Z AUTO 27010KT 10SM CLR 11/09 A2986 RMK AO2 T01070092 =
2018-10-19 22:35 METAR KLOT 200335Z AUTO 26010KT 10SM SCT060 11/09 A2986 RMK AO2 T01050092 =
2018-10-19 22:15 METAR KLOT 200315Z AUTO 25009KT 10SM SCT060 10/09 A2986 RMK AO2 T01020090 =
2018-10-19 21:55 METAR KLOT 200255Z AUTO 24009KT 10SM SCT050 10/09 A2986 RMK AO2 T01030090 =
2018-10-19 21:35 METAR KLOT 200235Z AUTO 25010KT 10SM BKN050 11/09 A2986 RMK AO2 T01050091 =
2018-10-19 21:15 METAR KLOT 200215Z AUTO 25011G15KT 10SM SCT050 11/09 A2985 RMK AO2 T01090092 =
2018-10-19 20:55 METAR KLOT 200155Z AUTO 24011KT 10SM SCT044 SCT049 11/09 A2985 RMK AO2 T01100092
                 =
2018-10-19 20:35 METAR KLOT 200135Z AUTO 24011G16KT 10SM SCT042 11/09 A2986 RMK AO2 T01110093 =
2018-10-19 20:15 METAR KLOT 200115Z AUTO 24012G18KT 10SM SCT042 11/09 A2985 RMK AO2 T01110091 =
2018-10-19 19:55 METAR KLOT 200055Z AUTO 24011G19KT 10SM OVC044 12/09 A2986 RMK AO2 T01150092 =
2018-10-19 19:35 METAR KLOT 200035Z AUTO 24014G20KT 10SM SCT022 SCT037 OVC044 11/09 A2986 RMK AO2
                 T01140092 =
2018-10-19 19:15 METAR KLOT 200015Z AUTO 24013G19KT 10SM BKN020 OVC038 11/09 A2986 RMK AO2
                 T01120090 =
2018-10-19 18:55 METAR KLOT 192355Z AUTO 24011KT 10SM OVC020 11/09 A2986 RMK AO2 60004 T01100090
                 10110 20093 =
2018-10-19 18:35 METAR KLOT 192335Z AUTO 23010G14KT 10SM OVC020 11/09 A2986 RMK AO2 T01060091 =
2018-10-19 18:15 METAR KLOT 192315Z AUTO 23010KT 10SM OVC020 11/09 A2986 RMK AO2 T01050091 =
2018-10-19 17:55 METAR KLOT 192255Z AUTO 23010KT 10SM OVC020 11/09 A2987 RMK AO2 T01050091 =
2018-10-19 17:35 METAR KLOT 192235Z AUTO 23013KT 5SM BR SCT005 SCT017 OVC022 10/10 A2987 RMK AO2
                 T01000095 =
2018-10-19 17:15 METAR KLOT 192215Z AUTO 23010KT 2 1/2SM -DZ OVC005 10/09 A2987 RMK AO2 T00970093
                 =
2018-10-19 16:55 METAR KLOT 192155Z AUTO 23011KT 1 3/4SM DZ OVC007 10/09 A2987 RMK AO2 T00970092
                 =
2018-10-19 16:35 METAR KLOT 192135Z AUTO 23012KT 2SM DZ OVC007 10/09 A2988 RMK AO2 T00960091 =
2018-10-19 16:15 METAR KLOT 192115Z AUTO 23011KT 3SM RA SCT011 OVC019 10/09 A2989 RMK AO2
                 T00960088 =
2018-10-19 15:55 METAR KLOT 192055Z AUTO 22011KT 10SM SCT009 BKN022 OVC031 10/09 A2989 RMK AO2
                 P0001 60004 T00950086 =
2018-10-19 15:35 METAR KLOT 192035Z AUTO 22014G17KT 10SM BKN007 BKN024 OVC031 10/09 A2989 RMK AO2
                 P0001 T00950087 =
2018-10-19 15:15 METAR KLOT 192015Z AUTO 22015G20KT 3SM RA BKN007 BKN012 OVC044 10/09 A2989 RMK
                 AO2 P0001 T00950086 =
2018-10-19 14:55 METAR KLOT 191955Z AUTO 22013G17KT 4SM -RA SCT011 BKN026 OVC046 10/09 A2990 RMK
                 AO2 P0002 T00990086 =
2018-10-19 14:35 METAR KLOT 191935Z AUTO 23015G20KT 7SM -RA SCT018 BKN027 OVC042 10/08 A2992 RMK
                 AO2 P0002 T01000080 =
2018-10-19 14:15 METAR KLOT 191915Z AUTO 23012KT 10SM RA BKN042 OVC050 10/08 A2994 RMK AO2
                 T01040077 =
2018-10-19 13:55 METAR KLOT 191855Z AUTO 21011KT 10SM OVC050 11/08 A2994 RMK AO2 P0001 T01050076
                 =
2018-10-19 13:35 METAR KLOT 191835Z AUTO 22012G18KT 10SM -RA SCT048 OVC060 10/07 A2996 RMK AO2
                 P0001 T01000070 =
2018-10-19 13:15 METAR KLOT 191815Z AUTO 23008KT 5SM RA SCT049 OVC060 10/07 A2998 RMK AO2 P0001
                 T00990067 =
2018-10-19 12:55 METAR KLOT 191755Z AUTO 22011G15KT 10SM -RA BKN060 OVC075 11/07 A2999 RMK AO2
                 P0001 60002 T01050065 10117 20070 =
2018-10-19 12:35 METAR KLOT 191735Z AUTO 22013KT 10SM -RA SCT050 OVC065 11/06 A3000 RMK AO2
                 T01050060 =
2018-10-19 12:15 METAR KLOT 191715Z AUTO 21011KT 10SM OVC065 11/07 A3001 RMK AO2 T01060065 =
2018-10-19 11:55 METAR KLOT 191655Z AUTO 23008KT 10SM SCT050 OVC065 10/06 A3003 RMK AO2 P0001
                 T01020063 =
2018-10-19 11:35 METAR KLOT 191635Z AUTO 23010KT 7SM -RA BKN050 OVC065 10/06 A3005 RMK AO2 P0001
                 T00950060 =
2018-10-19 11:15 METAR KLOT 191615Z AUTO 22014G17KT 10SM DZ BKN050 BKN065 OVC090 11/04 A3006 RMK
                 AO2 T01090041 =
2018-10-19 10:55 METAR KLOT 191555Z AUTO 23014KT 10SM -RA SCT065 OVC090 11/03 A3007 RMK AO2
                 T01110030 =
2018-10-19 10:35 METAR KLOT 191535Z AUTO 22014G18KT 10SM OVC100 11/03 A3008 RMK AO2 T01110028 =
2018-10-19 10:15 METAR KLOT 191515Z AUTO 22013KT 10SM OVC110 10/03 A3009 RMK AO2 T01020027 =
2018-10-19 09:55 METAR KLOT 191455Z AUTO 22014KT 10SM BKN110 10/02 A3010 RMK AO2 T00950022 =
2018-10-19 09:35 METAR KLOT 191435Z AUTO 21011KT 10SM OVC120 09/02 A3011 RMK AO2 T00900019 =
2018-10-19 09:15 METAR KLOT 191415Z AUTO 22012KT 10SM SCT120 09/02 A3012 RMK AO2 T00850019 =
2018-10-19 08:55 METAR KLOT 191355Z AUTO 21012G16KT 10SM CLR 09/02 A3013 RMK AO2 T00850019 =
2018-10-19 08:35 METAR KLOT 191335Z AUTO 21011KT 10SM CLR 08/02 A3013 RMK AO2 T00820022 =
2018-10-19 08:15 METAR KLOT 191315Z AUTO 21013KT 10SM CLR 08/02 A3014 RMK AO2 T00770018 =
2018-10-19 07:55 METAR KLOT 191255Z AUTO 22008KT 10SM CLR 08/02 A3016 RMK AO2 T00760019 =
2018-10-19 07:35 METAR KLOT 191235Z AUTO 21010G15KT 10SM CLR 08/02 A3015 RMK AO2 T00750018 =
2018-10-19 07:15 METAR KLOT 191215Z AUTO 22010KT 10SM CLR 07/02 A3016 RMK AO2 T00740018 =
2018-10-19 06:55 METAR KLOT 191155Z AUTO 20008KT 10SM CLR 07/02 A3016 RMK AO2 T00700017 10070
                 20031 =
2018-10-19 06:35 METAR KLOT 191135Z AUTO 20007KT 10SM CLR 06/02 A3017 RMK AO2 T00640017 =

Support USWX by starting your Amazon purchase here.